sensor_id;sensor_type;location;lat;lon;timestamp;P1;durP1;ratioP1;P2;durP2;ratioP2
11473;SDS011;5793;52.238;13.438;2023-04-06T00:01:46;12.73;;;9.77;;
11473;SDS011;5793;52.238;13.438;2023-04-06T00:04:14;14.10;;;10.13;;
11473;SDS011;5793;52.238;13.438;2023-04-06T00:06:42;13.90;;;9.83;;
11473;SDS011;5793;52.238;13.438;2023-04-06T00:09:10;13.13;;;10.33;;
11473;SDS011;5793;52.238;13.438;2023-04-06T00:11:39;13.17;;;10.23;;
11473;SDS011;5793;52.238;13.438;2023-04-06T00:14:07;12.37;;;10.00;;
11473;SDS011;5793;52.238;13.438;2023-04-06T00:16:34;12.23;;;10.17;;
11473;SDS011;5793;52.238;13.438;2023-04-06T00:19:02;12.20;;;9.67;;
11473;SDS011;5793;52.238;13.438;2023-04-06T00:21:30;12.37;;;10.37;;
11473;SDS011;5793;52.238;13.438;2023-04-06T00:23:58;12.70;;;10.30;;
11473;SDS011;5793;52.238;13.438;2023-04-06T00:26:26;13.43;;;9.43;;
11473;SDS011;5793;52.238;13.438;2023-04-06T00:28:55;10.80;;;9.70;;
11473;SDS011;5793;52.238;13.438;2023-04-06T00:31:24;13.67;;;10.53;;
11473;SDS011;5793;52.238;13.438;2023-04-06T00:33:52;12.30;;;9.80;;
11473;SDS011;5793;52.238;13.438;2023-04-06T00:36:20;12.17;;;10.03;;
11473;SDS011;5793;52.238;13.438;2023-04-06T00:38:48;11.70;;;9.97;;
11473;SDS011;5793;52.238;13.438;2023-04-06T00:41:15;12.23;;;9.70;;
11473;SDS011;5793;52.238;13.438;2023-04-06T00:43:44;12.03;;;9.47;;
11473;SDS011;5793;52.238;13.438;2023-04-06T00:46:13;12.33;;;10.13;;
11473;SDS011;5793;52.238;13.438;2023-04-06T00:48:41;12.17;;;9.57;;
11473;SDS011;5793;52.238;13.438;2023-04-06T00:51:09;11.80;;;9.20;;
11473;SDS011;5793;52.238;13.438;2023-04-06T00:53:37;13.63;;;8.90;;
11473;SDS011;5793;52.238;13.438;2023-04-06T00:56:05;12.37;;;9.50;;
11473;SDS011;5793;52.238;13.438;2023-04-06T00:58:35;10.30;;;9.07;;
11473;SDS011;5793;52.238;13.438;2023-04-06T01:01:04;12.27;;;9.50;;
11473;SDS011;5793;52.238;13.438;2023-04-06T01:03:33;10.30;;;7.83;;
11473;SDS011;5793;52.238;13.438;2023-04-06T01:06:01;11.77;;;8.43;;
11473;SDS011;5793;52.238;13.438;2023-04-06T01:08:29;9.80;;;7.90;;
11473;SDS011;5793;52.238;13.438;2023-04-06T01:10:58;10.10;;;8.10;;
11473;SDS011;5793;52.238;13.438;2023-04-06T01:13:27;11.43;;;8.27;;
11473;SDS011;5793;52.238;13.438;2023-04-06T01:15:55;12.43;;;8.80;;
11473;SDS011;5793;52.238;13.438;2023-04-06T01:18:25;10.13;;;8.53;;
11473;SDS011;5793;52.238;13.438;2023-04-06T01:20:54;11.50;;;8.67;;
11473;SDS011;5793;52.238;13.438;2023-04-06T01:23:24;16.93;;;9.83;;
11473;SDS011;5793;52.238;13.438;2023-04-06T01:25:51;11.73;;;8.90;;
11473;SDS011;5793;52.238;13.438;2023-04-06T01:28:19;13.27;;;8.93;;
11473;SDS011;5793;52.238;13.438;2023-04-06T01:30:47;12.37;;;9.30;;
11473;SDS011;5793;52.238;13.438;2023-04-06T01:33:15;11.03;;;9.27;;
11473;SDS011;5793;52.238;13.438;2023-04-06T01:35:43;11.63;;;8.70;;
11473;SDS011;5793;52.238;13.438;2023-04-06T01:38:11;14.23;;;9.10;;
11473;SDS011;5793;52.238;13.438;2023-04-06T01:40:40;11.17;;;8.93;;
11473;SDS011;5793;52.238;13.438;2023-04-06T01:43:08;10.27;;;8.70;;
11473;SDS011;5793;52.238;13.438;2023-04-06T01:45:35;11.63;;;9.37;;
11473;SDS011;5793;52.238;13.438;2023-04-06T01:48:03;12.70;;;9.07;;
11473;SDS011;5793;52.238;13.438;2023-04-06T01:50:31;12.63;;;9.47;;
11473;SDS011;5793;52.238;13.438;2023-04-06T01:52:59;13.37;;;9.40;;
11473;SDS011;5793;52.238;13.438;2023-04-06T01:55:27;13.43;;;10.20;;
11473;SDS011;5793;52.238;13.438;2023-04-06T01:57:56;15.33;;;10.30;;
11473;SDS011;5793;52.238;13.438;2023-04-06T02:00:24;16.33;;;10.27;;
11473;SDS011;5793;52.238;13.438;2023-04-06T02:02:51;14.67;;;10.27;;
11473;SDS011;5793;52.238;13.438;2023-04-06T02:05:19;14.33;;;10.73;;
11473;SDS011;5793;52.238;13.438;2023-04-06T02:07:47;14.83;;;10.37;;
11473;SDS011;5793;52.238;13.438;2023-04-06T02:10:15;13.30;;;9.70;;
11473;SDS011;5793;52.238;13.438;2023-04-06T02:12:43;15.60;;;10.80;;
11473;SDS011;5793;52.238;13.438;2023-04-06T02:15:12;11.90;;;9.67;;
11473;SDS011;5793;52.238;13.438;2023-04-06T02:17:40;12.30;;;10.10;;
11473;SDS011;5793;52.238;13.438;2023-04-06T02:20:09;12.67;;;9.93;;
11473;SDS011;5793;52.238;13.438;2023-04-06T02:22:37;12.60;;;10.43;;
11473;SDS011;5793;52.238;13.438;2023-04-06T02:25:05;13.07;;;9.47;;
11473;SDS011;5793;52.238;13.438;2023-04-06T02:27:33;11.70;;;8.93;;
11473;SDS011;5793;52.238;13.438;2023-04-06T02:30:01;11.20;;;9.37;;
11473;SDS011;5793;52.238;13.438;2023-04-06T02:32:31;12.23;;;8.87;;
11473;SDS011;5793;52.238;13.438;2023-04-06T02:34:59;12.93;;;9.80;;
11473;SDS011;5793;52.238;13.438;2023-04-06T02:37:27;14.70;;;9.73;;
11473;SDS011;5793;52.238;13.438;2023-04-06T02:39:55;15.80;;;10.50;;
11473;SDS011;5793;52.238;13.438;2023-04-06T02:42:22;16.73;;;10.30;;
11473;SDS011;5793;52.238;13.438;2023-04-06T02:44:50;15.10;;;10.20;;
11473;SDS011;5793;52.238;13.438;2023-04-06T02:47:18;14.03;;;10.20;;
11473;SDS011;5793;52.238;13.438;2023-04-06T02:49:47;13.33;;;9.30;;
11473;SDS011;5793;52.238;13.438;2023-04-06T02:52:15;12.83;;;10.63;;
11473;SDS011;5793;52.238;13.438;2023-04-06T02:54:44;12.63;;;10.00;;
11473;SDS011;5793;52.238;13.438;2023-04-06T02:57:11;12.50;;;10.20;;
11473;SDS011;5793;52.238;13.438;2023-04-06T02:59:39;13.43;;;10.47;;
11473;SDS011;5793;52.238;13.438;2023-04-06T03:02:07;13.90;;;10.23;;
11473;SDS011;5793;52.238;13.438;2023-04-06T03:04:35;14.93;;;10.43;;
11473;SDS011;5793;52.238;13.438;2023-04-06T03:07:04;15.07;;;10.53;;
11473;SDS011;5793;52.238;13.438;2023-04-06T03:09:32;15.90;;;11.13;;
11473;SDS011;5793;52.238;13.438;2023-04-06T03:12:00;13.33;;;10.83;;
11473;SDS011;5793;52.238;13.438;2023-04-06T03:14:28;15.13;;;10.53;;
11473;SDS011;5793;52.238;13.438;2023-04-06T03:16:56;13.70;;;12.00;;
11473;SDS011;5793;52.238;13.438;2023-04-06T03:19:24;15.33;;;12.33;;
11473;SDS011;5793;52.238;13.438;2023-04-06T03:21:51;15.20;;;10.40;;
11473;SDS011;5793;52.238;13.438;2023-04-06T03:24:20;14.73;;;11.10;;
11473;SDS011;5793;52.238;13.438;2023-04-06T03:26:48;16.00;;;12.30;;
11473;SDS011;5793;52.238;13.438;2023-04-06T03:29:16;15.63;;;11.47;;
11473;SDS011;5793;52.238;13.438;2023-04-06T03:31:44;19.10;;;11.80;;
11473;SDS011;5793;52.238;13.438;2023-04-06T03:34:11;18.10;;;14.70;;
11473;SDS011;5793;52.238;13.438;2023-04-06T03:36:39;18.37;;;13.13;;
11473;SDS011;5793;52.238;13.438;2023-04-06T03:39:07;16.53;;;12.20;;
11473;SDS011;5793;52.238;13.438;2023-04-06T03:41:36;16.17;;;12.53;;
11473;SDS011;5793;52.238;13.438;2023-04-06T03:44:05;18.97;;;12.23;;
11473;SDS011;5793;52.238;13.438;2023-04-06T03:46:32;17.87;;;13.67;;
11473;SDS011;5793;52.238;13.438;2023-04-06T03:49:00;18.70;;;12.60;;
11473;SDS011;5793;52.238;13.438;2023-04-06T03:51:28;18.27;;;13.60;;
11473;SDS011;5793;52.238;13.438;2023-04-06T03:53:56;23.97;;;13.33;;
11473;SDS011;5793;52.238;13.438;2023-04-06T03:56:24;24.40;;;13.40;;
11473;SDS011;5793;52.238;13.438;2023-04-06T03:58:53;19.03;;;12.93;;
11473;SDS011;5793;52.238;13.438;2023-04-06T04:01:21;19.63;;;14.57;;
11473;SDS011;5793;52.238;13.438;2023-04-06T04:03:49;18.20;;;14.00;;
11473;SDS011;5793;52.238;13.438;2023-04-06T04:06:18;21.93;;;14.67;;
11473;SDS011;5793;52.238;13.438;2023-04-06T04:08:46;19.23;;;14.33;;
11473;SDS011;5793;52.238;13.438;2023-04-06T04:11:14;16.33;;;12.97;;
11473;SDS011;5793;52.238;13.438;2023-04-06T04:13:42;18.17;;;14.03;;
11473;SDS011;5793;52.238;13.438;2023-04-06T04:16:11;21.17;;;13.47;;
11473;SDS011;5793;52.238;13.438;2023-04-06T04:18:39;25.90;;;13.33;;
11473;SDS011;5793;52.238;13.438;2023-04-06T04:21:09;17.83;;;13.17;;
11473;SDS011;5793;52.238;13.438;2023-04-06T04:23:37;16.23;;;12.17;;
11473;SDS011;5793;52.238;13.438;2023-04-06T04:26:05;16.33;;;11.50;;
11473;SDS011;5793;52.238;13.438;2023-04-06T04:28:33;13.23;;;10.80;;
11473;SDS011;5793;52.238;13.438;2023-04-06T04:31:00;14.57;;;10.97;;
11473;SDS011;5793;52.238;13.438;2023-04-06T04:33:30;15.87;;;11.83;;
11473;SDS011;5793;52.238;13.438;2023-04-06T04:35:57;16.43;;;12.07;;
11473;SDS011;5793;52.238;13.438;2023-04-06T04:38:25;15.30;;;11.80;;
11473;SDS011;5793;52.238;13.438;2023-04-06T04:40:53;16.67;;;11.47;;
11473;SDS011;5793;52.238;13.438;2023-04-06T04:43:21;14.73;;;11.63;;
11473;SDS011;5793;52.238;13.438;2023-04-06T04:45:48;20.97;;;12.63;;
11473;SDS011;5793;52.238;13.438;2023-04-06T04:48:16;18.70;;;13.27;;
11473;SDS011;5793;52.238;13.438;2023-04-06T04:50:45;21.17;;;12.73;;
11473;SDS011;5793;52.238;13.438;2023-04-06T04:53:13;18.63;;;12.40;;
11473;SDS011;5793;52.238;13.438;2023-04-06T04:55:41;18.07;;;13.97;;
11473;SDS011;5793;52.238;13.438;2023-04-06T04:58:09;15.83;;;13.30;;
11473;SDS011;5793;52.238;13.438;2023-04-06T05:00:40;20.87;;;14.97;;
11473;SDS011;5793;52.238;13.438;2023-04-06T05:03:08;16.20;;;12.93;;
11473;SDS011;5793;52.238;13.438;2023-04-06T05:05:36;18.17;;;13.17;;
11473;SDS011;5793;52.238;13.438;2023-04-06T05:08:05;14.87;;;12.30;;
11473;SDS011;5793;52.238;13.438;2023-04-06T05:10:34;18.50;;;13.17;;
11473;SDS011;5793;52.238;13.438;2023-04-06T05:13:02;22.10;;;13.43;;
11473;SDS011;5793;52.238;13.438;2023-04-06T05:15:29;19.03;;;13.80;;
11473;SDS011;5793;52.238;13.438;2023-04-06T05:17:57;23.53;;;15.00;;
11473;SDS011;5793;52.238;13.438;2023-04-06T05:20:26;21.73;;;15.20;;
11473;SDS011;5793;52.238;13.438;2023-04-06T05:22:54;24.77;;;16.53;;
11473;SDS011;5793;52.238;13.438;2023-04-06T05:25:23;24.83;;;16.67;;
11473;SDS011;5793;52.238;13.438;2023-04-06T05:27:54;17.37;;;14.27;;
11473;SDS011;5793;52.238;13.438;2023-04-06T05:30:22;18.83;;;15.13;;
11473;SDS011;5793;52.238;13.438;2023-04-06T05:32:50;23.60;;;17.97;;
11473;SDS011;5793;52.238;13.438;2023-04-06T05:35:18;36.87;;;22.33;;
11473;SDS011;5793;52.238;13.438;2023-04-06T05:37:46;26.53;;;19.00;;
11473;SDS011;5793;52.238;13.438;2023-04-06T05:40:14;25.70;;;20.17;;
11473;SDS011;5793;52.238;13.438;2023-04-06T05:42:43;25.13;;;20.27;;
11473;SDS011;5793;52.238;13.438;2023-04-06T05:45:11;21.70;;;17.03;;
11473;SDS011;5793;52.238;13.438;2023-04-06T05:47:43;19.93;;;15.60;;
11473;SDS011;5793;52.238;13.438;2023-04-06T05:50:11;21.97;;;15.37;;
11473;SDS011;5793;52.238;13.438;2023-04-06T05:52:41;27.17;;;20.10;;
11473;SDS011;5793;52.238;13.438;2023-04-06T05:55:11;26.13;;;17.27;;
11473;SDS011;5793;52.238;13.438;2023-04-06T05:57:39;23.00;;;16.27;;
11473;SDS011;5793;52.238;13.438;2023-04-06T06:00:09;24.00;;;17.13;;
11473;SDS011;5793;52.238;13.438;2023-04-06T06:02:37;20.67;;;16.23;;
11473;SDS011;5793;52.238;13.438;2023-04-06T06:05:06;18.80;;;14.57;;
11473;SDS011;5793;52.238;13.438;2023-04-06T06:07:34;20.63;;;14.87;;
11473;SDS011;5793;52.238;13.438;2023-04-06T06:10:02;20.93;;;13.63;;
11473;SDS011;5793;52.238;13.438;2023-04-06T06:12:30;16.80;;;12.77;;
11473;SDS011;5793;52.238;13.438;2023-04-06T06:14:58;18.63;;;12.33;;
11473;SDS011;5793;52.238;13.438;2023-04-06T06:17:27;15.47;;;12.43;;
11473;SDS011;5793;52.238;13.438;2023-04-06T06:19:55;19.50;;;11.60;;
11473;SDS011;5793;52.238;13.438;2023-04-06T06:22:23;14.03;;;10.63;;
11473;SDS011;5793;52.238;13.438;2023-04-06T06:24:51;16.53;;;10.37;;
11473;SDS011;5793;52.238;13.438;2023-04-06T06:27:19;12.50;;;9.93;;
11473;SDS011;5793;52.238;13.438;2023-04-06T06:29:46;13.50;;;9.67;;
11473;SDS011;5793;52.238;13.438;2023-04-06T06:32:14;15.10;;;9.23;;
11473;SDS011;5793;52.238;13.438;2023-04-06T06:34:43;12.40;;;8.30;;
11473;SDS011;5793;52.238;13.438;2023-04-06T06:37:11;12.47;;;7.67;;
11473;SDS011;5793;52.238;13.438;2023-04-06T06:39:39;10.83;;;7.87;;
11473;SDS011;5793;52.238;13.438;2023-04-06T06:42:07;10.37;;;7.27;;
11473;SDS011;5793;52.238;13.438;2023-04-06T06:44:39;8.27;;;6.77;;
11473;SDS011;5793;52.238;13.438;2023-04-06T06:47:07;7.60;;;6.70;;
11473;SDS011;5793;52.238;13.438;2023-04-06T06:49:35;8.90;;;6.87;;
11473;SDS011;5793;52.238;13.438;2023-04-06T06:52:04;9.70;;;6.90;;
11473;SDS011;5793;52.238;13.438;2023-04-06T06:54:32;9.23;;;6.80;;
11473;SDS011;5793;52.238;13.438;2023-04-06T06:57:00;12.37;;;6.67;;
11473;SDS011;5793;52.238;13.438;2023-04-06T06:59:27;7.93;;;6.57;;
11473;SDS011;5793;52.238;13.438;2023-04-06T07:01:55;10.90;;;6.57;;
11473;SDS011;5793;52.238;13.438;2023-04-06T07:04:23;9.80;;;6.17;;
11473;SDS011;5793;52.238;13.438;2023-04-06T07:06:51;7.57;;;6.00;;
11473;SDS011;5793;52.238;13.438;2023-04-06T07:09:20;9.83;;;6.27;;
11473;SDS011;5793;52.238;13.438;2023-04-06T07:11:48;9.27;;;6.13;;
11473;SDS011;5793;52.238;13.438;2023-04-06T07:14:16;10.87;;;6.27;;
11473;SDS011;5793;52.238;13.438;2023-04-06T07:16:43;9.07;;;6.27;;
11473;SDS011;5793;52.238;13.438;2023-04-06T07:19:13;11.03;;;6.30;;
11473;SDS011;5793;52.238;13.438;2023-04-06T07:21:40;11.57;;;6.13;;
11473;SDS011;5793;52.238;13.438;2023-04-06T07:24:08;10.43;;;6.30;;
11473;SDS011;5793;52.238;13.438;2023-04-06T07:26:38;9.43;;;5.53;;
11473;SDS011;5793;52.238;13.438;2023-04-06T07:29:05;7.53;;;5.37;;
11473;SDS011;5793;52.238;13.438;2023-04-06T07:31:33;8.93;;;5.97;;
11473;SDS011;5793;52.238;13.438;2023-04-06T07:34:02;7.37;;;5.37;;
11473;SDS011;5793;52.238;13.438;2023-04-06T07:36:29;8.53;;;4.80;;
11473;SDS011;5793;52.238;13.438;2023-04-06T07:38:57;8.30;;;4.87;;
11473;SDS011;5793;52.238;13.438;2023-04-06T07:41:25;6.83;;;3.97;;
11473;SDS011;5793;52.238;13.438;2023-04-06T07:43:54;5.70;;;3.67;;
11473;SDS011;5793;52.238;13.438;2023-04-06T07:46:22;5.23;;;3.93;;
11473;SDS011;5793;52.238;13.438;2023-04-06T07:48:50;4.80;;;3.10;;
11473;SDS011;5793;52.238;13.438;2023-04-06T07:51:17;6.17;;;3.47;;
11473;SDS011;5793;52.238;13.438;2023-04-06T07:53:45;5.97;;;3.67;;
11473;SDS011;5793;52.238;13.438;2023-04-06T07:56:13;5.43;;;3.70;;
11473;SDS011;5793;52.238;13.438;2023-04-06T07:58:42;5.23;;;3.57;;
11473;SDS011;5793;52.238;13.438;2023-04-06T08:01:11;8.53;;;3.97;;
11473;SDS011;5793;52.238;13.438;2023-04-06T08:03:39;3.67;;;2.80;;
11473;SDS011;5793;52.238;13.438;2023-04-06T08:06:07;7.43;;;3.40;;
11473;SDS011;5793;52.238;13.438;2023-04-06T08:08:35;8.47;;;4.60;;
11473;SDS011;5793;52.238;13.438;2023-04-06T08:11:03;8.57;;;3.70;;
11473;SDS011;5793;52.238;13.438;2023-04-06T08:13:31;4.97;;;2.97;;
11473;SDS011;5793;52.238;13.438;2023-04-06T08:15:59;6.53;;;2.70;;
11473;SDS011;5793;52.238;13.438;2023-04-06T08:18:28;7.60;;;3.00;;
11473;SDS011;5793;52.238;13.438;2023-04-06T08:20:56;7.07;;;2.70;;
11473;SDS011;5793;52.238;13.438;2023-04-06T08:23:24;3.78;;;2.50;;
11473;SDS011;5793;52.238;13.438;2023-04-06T08:25:52;3.30;;;2.33;;
11473;SDS011;5793;52.238;13.438;2023-04-06T08:28:20;5.93;;;2.78;;
11473;SDS011;5793;52.238;13.438;2023-04-06T08:30:48;3.30;;;2.45;;
11473;SDS011;5793;52.238;13.438;2023-04-06T08:33:16;6.13;;;2.50;;
11473;SDS011;5793;52.238;13.438;2023-04-06T08:35:45;3.45;;;2.53;;
11473;SDS011;5793;52.238;13.438;2023-04-06T08:38:13;4.53;;;2.28;;
11473;SDS011;5793;52.238;13.438;2023-04-06T08:40:41;3.70;;;2.38;;
11473;SDS011;5793;52.238;13.438;2023-04-06T08:43:13;4.50;;;2.50;;
11473;SDS011;5793;52.238;13.438;2023-04-06T08:45:41;3.58;;;2.35;;
11473;SDS011;5793;52.238;13.438;2023-04-06T08:48:10;3.90;;;2.55;;
11473;SDS011;5793;52.238;13.438;2023-04-06T08:50:39;2.95;;;2.10;;
11473;SDS011;5793;52.238;13.438;2023-04-06T08:53:08;9.38;;;2.90;;
11473;SDS011;5793;52.238;13.438;2023-04-06T08:55:38;3.15;;;2.20;;
11473;SDS011;5793;52.238;13.438;2023-04-06T08:58:06;5.13;;;2.33;;
11473;SDS011;5793;52.238;13.438;2023-04-06T09:00:36;4.85;;;2.30;;
11473;SDS011;5793;52.238;13.438;2023-04-06T09:03:08;5.25;;;2.58;;
11473;SDS011;5793;52.238;13.438;2023-04-06T09:05:39;3.38;;;2.00;;
11473;SDS011;5793;52.238;13.438;2023-04-06T09:08:08;2.70;;;1.83;;
11473;SDS011;5793;52.238;13.438;2023-04-06T09:10:38;2.00;;;1.77;;
11473;SDS011;5793;52.238;13.438;2023-04-06T09:13:08;2.72;;;2.00;;
11473;SDS011;5793;52.238;13.438;2023-04-06T09:15:36;2.60;;;1.88;;
11473;SDS011;5793;52.238;13.438;2023-04-06T09:18:05;2.78;;;1.85;;
11473;SDS011;5793;52.238;13.438;2023-04-06T09:20:34;4.22;;;1.90;;
11473;SDS011;5793;52.238;13.438;2023-04-06T09:23:02;4.43;;;1.83;;
11473;SDS011;5793;52.238;13.438;2023-04-06T09:25:31;5.32;;;1.90;;
11473;SDS011;5793;52.238;13.438;2023-04-06T09:27:59;3.55;;;1.92;;
11473;SDS011;5793;52.238;13.438;2023-04-06T09:30:28;2.38;;;1.85;;
11473;SDS011;5793;52.238;13.438;2023-04-06T09:32:57;7.43;;;2.50;;
11473;SDS011;5793;52.238;13.438;2023-04-06T09:35:26;5.07;;;2.13;;
11473;SDS011;5793;52.238;13.438;2023-04-06T09:37:56;2.80;;;2.33;;
11473;SDS011;5793;52.238;13.438;2023-04-06T09:40:23;2.47;;;2.08;;
11473;SDS011;5793;52.238;13.438;2023-04-06T09:42:53;5.95;;;2.55;;
11473;SDS011;5793;52.238;13.438;2023-04-06T09:45:23;2.65;;;1.90;;
11473;SDS011;5793;52.238;13.438;2023-04-06T09:47:52;4.15;;;2.50;;
11473;SDS011;5793;52.238;13.438;2023-04-06T09:50:22;4.53;;;2.25;;
11473;SDS011;5793;52.238;13.438;2023-04-06T09:52:53;3.72;;;2.30;;
11473;SDS011;5793;52.238;13.438;2023-04-06T09:55:25;2.90;;;1.92;;
11473;SDS011;5793;52.238;13.438;2023-04-06T09:58:04;3.30;;;2.10;;
11473;SDS011;5793;52.238;13.438;2023-04-06T10:00:34;6.80;;;2.22;;
11473;SDS011;5793;52.238;13.438;2023-04-06T10:03:12;3.55;;;2.20;;
11473;SDS011;5793;52.238;13.438;2023-04-06T10:05:50;4.63;;;2.38;;
11473;SDS011;5793;52.238;13.438;2023-04-06T10:08:24;3.65;;;1.90;;
11473;SDS011;5793;52.238;13.438;2023-04-06T10:10:57;2.47;;;1.90;;
11473;SDS011;5793;52.238;13.438;2023-04-06T10:13:28;5.32;;;2.60;;
11473;SDS011;5793;52.238;13.438;2023-04-06T10:15:56;2.83;;;2.10;;
11473;SDS011;5793;52.238;13.438;2023-04-06T10:18:26;2.20;;;2.00;;
11473;SDS011;5793;52.238;13.438;2023-04-06T10:20:56;2.88;;;2.35;;
11473;SDS011;5793;52.238;13.438;2023-04-06T10:23:29;2.50;;;2.13;;
11473;SDS011;5793;52.238;13.438;2023-04-06T10:26:01;3.90;;;2.10;;
11473;SDS011;5793;52.238;13.438;2023-04-06T10:28:31;3.28;;;2.45;;
11473;SDS011;5793;52.238;13.438;2023-04-06T10:31:02;3.25;;;2.42;;
11473;SDS011;5793;52.238;13.438;2023-04-06T10:33:32;2.65;;;2.30;;
11473;SDS011;5793;52.238;13.438;2023-04-06T10:36:09;5.93;;;2.70;;
11473;SDS011;5793;52.238;13.438;2023-04-06T10:38:38;3.08;;;2.22;;
11473;SDS011;5793;52.238;13.438;2023-04-06T10:41:08;3.30;;;2.55;;
11473;SDS011;5793;52.238;13.438;2023-04-06T10:43:38;4.68;;;2.60;;
11473;SDS011;5793;52.238;13.438;2023-04-06T10:46:08;2.63;;;2.05;;
11473;SDS011;5793;52.238;13.438;2023-04-06T10:48:37;6.80;;;2.75;;
11473;SDS011;5793;52.238;13.438;2023-04-06T10:51:10;3.28;;;2.50;;
11473;SDS011;5793;52.238;13.438;2023-04-06T10:53:39;3.00;;;2.60;;
11473;SDS011;5793;52.238;13.438;2023-04-06T10:56:09;6.80;;;2.45;;
11473;SDS011;5793;52.238;13.438;2023-04-06T10:58:45;2.92;;;2.13;;
11473;SDS011;5793;52.238;13.438;2023-04-06T11:01:14;3.40;;;2.95;;
11473;SDS011;5793;52.238;13.438;2023-04-06T11:03:42;2.88;;;2.58;;
11473;SDS011;5793;52.238;13.438;2023-04-06T11:06:17;5.68;;;2.63;;
11473;SDS011;5793;52.238;13.438;2023-04-06T11:08:45;3.38;;;2.75;;
11473;SDS011;5793;52.238;13.438;2023-04-06T11:11:14;6.25;;;5.30;;
11473;SDS011;5793;52.238;13.438;2023-04-06T11:13:46;3.85;;;3.03;;
11473;SDS011;5793;52.238;13.438;2023-04-06T11:16:16;3.38;;;2.80;;
11473;SDS011;5793;52.238;13.438;2023-04-06T11:18:49;4.28;;;3.20;;
11473;SDS011;5793;52.238;13.438;2023-04-06T11:21:18;3.50;;;2.83;;
11473;SDS011;5793;52.238;13.438;2023-04-06T11:23:46;4.03;;;2.85;;
11473;SDS011;5793;52.238;13.438;2023-04-06T11:26:14;3.63;;;2.65;;
11473;SDS011;5793;52.238;13.438;2023-04-06T11:28:42;4.75;;;3.13;;
11473;SDS011;5793;52.238;13.438;2023-04-06T11:31:11;4.05;;;2.88;;
11473;SDS011;5793;52.238;13.438;2023-04-06T11:33:39;4.25;;;3.30;;
11473;SDS011;5793;52.238;13.438;2023-04-06T11:36:07;8.15;;;3.25;;
11473;SDS011;5793;52.238;13.438;2023-04-06T11:38:38;3.67;;;2.92;;
11473;SDS011;5793;52.238;13.438;2023-04-06T11:41:06;5.22;;;3.55;;
11473;SDS011;5793;52.238;13.438;2023-04-06T11:43:34;4.20;;;3.30;;
11473;SDS011;5793;52.238;13.438;2023-04-06T11:46:02;6.32;;;3.22;;
11473;SDS011;5793;52.238;13.438;2023-04-06T11:48:32;4.43;;;3.22;;
11473;SDS011;5793;52.238;13.438;2023-04-06T11:51:11;3.20;;;2.85;;
11473;SDS011;5793;52.238;13.438;2023-04-06T11:53:43;5.70;;;2.72;;
11473;SDS011;5793;52.238;13.438;2023-04-06T11:56:22;4.43;;;3.33;;
11473;SDS011;5793;52.238;13.438;2023-04-06T11:58:51;3.95;;;3.17;;
11473;SDS011;5793;52.238;13.438;2023-04-06T12:01:19;4.82;;;2.88;;
11473;SDS011;5793;52.238;13.438;2023-04-06T12:03:48;4.97;;;2.90;;
11473;SDS011;5793;52.238;13.438;2023-04-06T12:06:17;7.10;;;3.42;;
11473;SDS011;5793;52.238;13.438;2023-04-06T12:08:45;3.65;;;3.20;;
11473;SDS011;5793;52.238;13.438;2023-04-06T12:11:13;3.33;;;3.03;;
11473;SDS011;5793;52.238;13.438;2023-04-06T12:13:41;4.18;;;3.00;;
11473;SDS011;5793;52.238;13.438;2023-04-06T12:16:10;3.97;;;3.13;;
11473;SDS011;5793;52.238;13.438;2023-04-06T12:18:38;3.30;;;2.88;;
11473;SDS011;5793;52.238;13.438;2023-04-06T12:21:07;4.18;;;3.20;;
11473;SDS011;5793;52.238;13.438;2023-04-06T12:23:35;3.35;;;3.03;;
11473;SDS011;5793;52.238;13.438;2023-04-06T12:26:03;5.55;;;3.10;;
11473;SDS011;5793;52.238;13.438;2023-04-06T12:28:38;3.03;;;2.72;;
11473;SDS011;5793;52.238;13.438;2023-04-06T12:31:06;6.00;;;3.10;;
11473;SDS011;5793;52.238;13.438;2023-04-06T12:33:34;3.35;;;2.85;;
11473;SDS011;5793;52.238;13.438;2023-04-06T12:36:02;4.35;;;3.08;;
11473;SDS011;5793;52.238;13.438;2023-04-06T12:38:31;4.00;;;2.72;;
11473;SDS011;5793;52.238;13.438;2023-04-06T12:40:59;7.07;;;3.20;;
11473;SDS011;5793;52.238;13.438;2023-04-06T12:43:27;3.15;;;2.83;;
11473;SDS011;5793;52.238;13.438;2023-04-06T12:45:55;3.70;;;2.70;;
11473;SDS011;5793;52.238;13.438;2023-04-06T12:48:23;4.68;;;2.78;;
11473;SDS011;5793;52.238;13.438;2023-04-06T12:50:53;4.32;;;3.10;;
11473;SDS011;5793;52.238;13.438;2023-04-06T12:53:22;3.95;;;2.97;;
11473;SDS011;5793;52.238;13.438;2023-04-06T12:55:51;6.03;;;2.97;;
11473;SDS011;5793;52.238;13.438;2023-04-06T12:58:20;3.70;;;2.88;;
11473;SDS011;5793;52.238;13.438;2023-04-06T13:00:50;4.28;;;3.08;;
11473;SDS011;5793;52.238;13.438;2023-04-06T13:03:17;5.22;;;3.20;;
11473;SDS011;5793;52.238;13.438;2023-04-06T13:05:46;3.42;;;2.95;;
11473;SDS011;5793;52.238;13.438;2023-04-06T13:08:15;4.30;;;3.00;;
11473;SDS011;5793;52.238;13.438;2023-04-06T13:10:46;4.15;;;2.90;;
11473;SDS011;5793;52.238;13.438;2023-04-06T13:13:16;3.95;;;2.80;;
11473;SDS011;5793;52.238;13.438;2023-04-06T13:15:44;4.15;;;2.70;;
11473;SDS011;5793;52.238;13.438;2023-04-06T13:18:12;4.43;;;2.85;;
11473;SDS011;5793;52.238;13.438;2023-04-06T13:20:40;4.80;;;2.88;;
11473;SDS011;5793;52.238;13.438;2023-04-06T13:23:08;4.28;;;2.78;;
11473;SDS011;5793;52.238;13.438;2023-04-06T13:25:36;4.35;;;2.83;;
11473;SDS011;5793;52.238;13.438;2023-04-06T13:28:04;4.28;;;3.22;;
11473;SDS011;5793;52.238;13.438;2023-04-06T13:30:34;4.63;;;2.92;;
11473;SDS011;5793;52.238;13.438;2023-04-06T13:33:02;3.28;;;2.70;;
11473;SDS011;5793;52.238;13.438;2023-04-06T13:35:30;4.65;;;3.10;;
11473;SDS011;5793;52.238;13.438;2023-04-06T13:37:58;4.05;;;3.03;;
11473;SDS011;5793;52.238;13.438;2023-04-06T13:40:26;4.55;;;3.10;;
11473;SDS011;5793;52.238;13.438;2023-04-06T13:42:54;5.07;;;2.88;;
11473;SDS011;5793;52.238;13.438;2023-04-06T13:45:22;4.25;;;2.30;;
11473;SDS011;5793;52.238;13.438;2023-04-06T13:47:51;3.47;;;2.88;;
11473;SDS011;5793;52.238;13.438;2023-04-06T13:50:19;4.32;;;2.83;;
11473;SDS011;5793;52.238;13.438;2023-04-06T13:52:47;3.58;;;2.80;;
11473;SDS011;5793;52.238;13.438;2023-04-06T13:55:15;3.97;;;2.83;;
11473;SDS011;5793;52.238;13.438;2023-04-06T13:57:43;9.95;;;3.20;;
11473;SDS011;5793;52.238;13.438;2023-04-06T14:00:12;4.88;;;2.75;;
11473;SDS011;5793;52.238;13.438;2023-04-06T14:02:41;4.47;;;3.10;;
11473;SDS011;5793;52.238;13.438;2023-04-06T14:05:10;5.22;;;2.92;;
11473;SDS011;5793;52.238;13.438;2023-04-06T14:07:38;2.72;;;2.42;;
11473;SDS011;5793;52.238;13.438;2023-04-06T14:10:06;5.97;;;3.00;;
11473;SDS011;5793;52.238;13.438;2023-04-06T14:12:40;3.90;;;2.75;;
11473;SDS011;5793;52.238;13.438;2023-04-06T14:15:09;5.03;;;2.90;;
11473;SDS011;5793;52.238;13.438;2023-04-06T14:17:38;20.80;;;3.50;;
11473;SDS011;5793;52.238;13.438;2023-04-06T14:20:07;4.43;;;2.72;;
11473;SDS011;5793;52.238;13.438;2023-04-06T14:22:41;3.75;;;2.92;;
11473;SDS011;5793;52.238;13.438;2023-04-06T14:25:09;4.07;;;2.90;;
11473;SDS011;5793;52.238;13.438;2023-04-06T14:27:38;2.97;;;2.67;;
11473;SDS011;5793;52.238;13.438;2023-04-06T14:30:07;7.78;;;3.65;;
11473;SDS011;5793;52.238;13.438;2023-04-06T14:32:35;2.88;;;2.50;;
11473;SDS011;5793;52.238;13.438;2023-04-06T14:35:04;4.00;;;2.70;;
11473;SDS011;5793;52.238;13.438;2023-04-06T14:37:33;5.60;;;2.92;;
11473;SDS011;5793;52.238;13.438;2023-04-06T14:40:02;3.10;;;2.58;;
11473;SDS011;5793;52.238;13.438;2023-04-06T14:42:31;3.67;;;2.70;;
11473;SDS011;5793;52.238;13.438;2023-04-06T14:44:59;3.65;;;2.78;;
11473;SDS011;5793;52.238;13.438;2023-04-06T14:47:27;4.43;;;3.00;;